sensor_id;sensor_type;location;lat;lon;timestamp;pressure;altitude;pressure_sealevel;temperature;humidity
21359;BME280;13506;50.852;20.632;2023-12-20T00:00:25;97594.94;;;9.97;68.55
21359;BME280;13506;50.852;20.632;2023-12-20T00:03:13;97585.78;;;9.91;69.82
21359;BME280;13506;50.852;20.632;2023-12-20T00:05:41;97580.78;;;9.88;70.72
21359;BME280;13506;50.852;20.632;2023-12-20T00:08:10;97570.31;;;9.90;70.17
21359;BME280;13506;50.852;20.632;2023-12-20T00:10:40;97574.34;;;9.81;71.46
21359;BME280;13506;50.852;20.632;2023-12-20T00:13:08;97574.69;;;9.76;71.29
21359;BME280;13506;50.852;20.632;2023-12-20T00:15:36;97565.75;;;9.68;72.71
21359;BME280;13506;50.852;20.632;2023-12-20T00:18:05;97565.94;;;9.65;72.14
21359;BME280;13506;50.852;20.632;2023-12-20T00:20:38;97561.88;;;9.61;72.71
21359;BME280;13506;50.852;20.632;2023-12-20T00:23:06;97553.66;;;9.54;73.36
21359;BME280;13506;50.852;20.632;2023-12-20T00:25:35;97561.84;;;9.48;74.97
21359;BME280;13506;50.852;20.632;2023-12-20T00:28:04;97557.78;;;9.44;74.98
21359;BME280;13506;50.852;20.632;2023-12-20T00:30:32;97564.03;;;9.41;75.77
21359;BME280;13506;50.852;20.632;2023-12-20T00:33:06;97565.25;;;9.35;76.91
21359;BME280;13506;50.852;20.632;2023-12-20T00:35:34;97560.69;;;9.26;76.89
21359;BME280;13506;50.852;20.632;2023-12-20T00:38:02;97559.94;;;9.24;77.32
21359;BME280;13506;50.852;20.632;2023-12-20T00:40:31;97561.72;;;9.24;77.48
21359;BME280;13506;50.852;20.632;2023-12-20T00:42:59;97566.19;;;9.22;78.14
21359;BME280;13506;50.852;20.632;2023-12-20T00:45:29;97570.31;;;9.24;78.11
21359;BME280;13506;50.852;20.632;2023-12-20T00:47:57;97559.94;;;9.24;78.12
21359;BME280;13506;50.852;20.632;2023-12-20T00:50:25;97551.53;;;9.21;78.74
21359;BME280;13506;50.852;20.632;2023-12-20T00:52:55;97548.31;;;9.17;79.90
21359;BME280;13506;50.852;20.632;2023-12-20T00:55:22;97544.91;;;9.16;79.99
21359;BME280;13506;50.852;20.632;2023-12-20T00:57:50;97531.72;;;9.20;80.83
21359;BME280;13506;50.852;20.632;2023-12-20T01:00:20;97539.59;;;9.18;81.13
21359;BME280;13506;50.852;20.632;2023-12-20T01:02:49;97537.94;;;9.17;81.27
21359;BME280;13506;50.852;20.632;2023-12-20T01:05:18;97541.44;;;9.16;81.34
21359;BME280;13506;50.852;20.632;2023-12-20T01:07:49;97543.03;;;9.19;80.70
21359;BME280;13506;50.852;20.632;2023-12-20T01:10:17;97543.84;;;9.19;81.04
21359;BME280;13506;50.852;20.632;2023-12-20T01:12:46;97534.69;;;9.13;82.11
21359;BME280;13506;50.852;20.632;2023-12-20T01:15:13;97542.69;;;9.10;82.31
21359;BME280;13506;50.852;20.632;2023-12-20T01:17:42;97536.88;;;9.07;83.42
21359;BME280;13506;50.852;20.632;2023-12-20T01:20:11;97539.47;;;9.07;83.71
21359;BME280;13506;50.852;20.632;2023-12-20T01:22:39;97543.72;;;9.08;82.89
21359;BME280;13506;50.852;20.632;2023-12-20T01:25:09;97532.59;;;9.06;83.97
21359;BME280;13506;50.852;20.632;2023-12-20T01:27:37;97527.41;;;9.06;84.64
21359;BME280;13506;50.852;20.632;2023-12-20T01:30:06;97522.44;;;9.03;85.13
21359;BME280;13506;50.852;20.632;2023-12-20T01:32:34;97520.78;;;9.02;84.74
21359;BME280;13506;50.852;20.632;2023-12-20T01:35:03;97517.47;;;9.00;84.75
21359;BME280;13506;50.852;20.632;2023-12-20T01:37:32;97503.13;;;8.94;85.33
21359;BME280;13506;50.852;20.632;2023-12-20T01:40:00;97492.94;;;8.91;85.87
21359;BME280;13506;50.852;20.632;2023-12-20T01:42:29;97491.91;;;8.93;85.67
21359;BME280;13506;50.852;20.632;2023-12-20T01:44:56;97485.25;;;8.89;86.29
21359;BME280;13506;50.852;20.632;2023-12-20T01:47:24;97483.41;;;8.91;85.05
21359;BME280;13506;50.852;20.632;2023-12-20T01:49:53;97486.72;;;8.93;85.56
21359;BME280;13506;50.852;20.632;2023-12-20T01:52:24;97486.41;;;8.98;86.51
21359;BME280;13506;50.852;20.632;2023-12-20T01:54:55;97475.41;;;8.94;87.04
21359;BME280;13506;50.852;20.632;2023-12-20T01:57:29;97467.22;;;9.01;86.48
21359;BME280;13506;50.852;20.632;2023-12-20T01:59:58;97471.59;;;9.00;87.61
21359;BME280;13506;50.852;20.632;2023-12-20T02:02:28;97478.25;;;9.04;86.94
21359;BME280;13506;50.852;20.632;2023-12-20T02:04:56;97474.09;;;9.02;87.23
21359;BME280;13506;50.852;20.632;2023-12-20T02:07:25;97466.72;;;8.95;87.84
21359;BME280;13506;50.852;20.632;2023-12-20T02:09:54;97454.22;;;8.88;88.11
21359;BME280;13506;50.852;20.632;2023-12-20T02:12:23;97448.31;;;8.86;89.78
21359;BME280;13506;50.852;20.632;2023-12-20T02:14:50;97425.47;;;8.78;88.98
21359;BME280;13506;50.852;20.632;2023-12-20T02:17:20;97431.78;;;8.74;90.16
21359;BME280;13506;50.852;20.632;2023-12-20T02:19:50;97417.81;;;8.76;90.05
21359;BME280;13506;50.852;20.632;2023-12-20T02:22:20;97428.19;;;8.76;90.04
21359;BME280;13506;50.852;20.632;2023-12-20T02:24:46;97429.00;;;8.77;90.98
21359;BME280;13506;50.852;20.632;2023-12-20T02:27:17;97437.69;;;8.76;91.90
21359;BME280;13506;50.852;20.632;2023-12-20T02:29:47;97443.00;;;8.74;92.32
21359;BME280;13506;50.852;20.632;2023-12-20T02:32:16;97438.31;;;8.67;93.93
21359;BME280;13506;50.852;20.632;2023-12-20T02:34:46;97431.25;;;8.56;94.82
21359;BME280;13506;50.852;20.632;2023-12-20T02:37:14;97424.28;;;8.56;94.26
21359;BME280;13506;50.852;20.632;2023-12-20T02:39:44;97435.44;;;8.44;96.22
21359;BME280;13506;50.852;20.632;2023-12-20T02:42:12;97425.44;;;8.38;97.06
21359;BME280;13506;50.852;20.632;2023-12-20T02:44:39;97424.09;;;8.32;97.44
21359;BME280;13506;50.852;20.632;2023-12-20T02:47:08;97426.13;;;8.27;98.11
21359;BME280;13506;50.852;20.632;2023-12-20T02:49:36;97420.84;;;8.29;98.50
21359;BME280;13506;50.852;20.632;2023-12-20T02:52:04;97430.69;;;8.24;98.87
21359;BME280;13506;50.852;20.632;2023-12-20T02:54:32;97432.25;;;8.26;98.48
21359;BME280;13506;50.852;20.632;2023-12-20T02:57:02;97424.75;;;8.22;98.90
21359;BME280;13506;50.852;20.632;2023-12-20T02:59:30;97418.72;;;8.21;99.17
21359;BME280;13506;50.852;20.632;2023-12-20T03:01:58;97417.72;;;8.24;100.00
21359;BME280;13506;50.852;20.632;2023-12-20T03:04:26;97426.41;;;8.23;100.00
21359;BME280;13506;50.852;20.632;2023-12-20T03:06:54;97416.78;;;8.25;99.97
21359;BME280;13506;50.852;20.632;2023-12-20T03:09:22;97408.84;;;8.28;99.65
21359;BME280;13506;50.852;20.632;2023-12-20T03:11:50;97392.91;;;8.34;99.82
21359;BME280;13506;50.852;20.632;2023-12-20T03:14:19;97391.59;;;8.41;99.31
21359;BME280;13506;50.852;20.632;2023-12-20T03:16:49;97386.75;;;8.49;99.57
21359;BME280;13506;50.852;20.632;2023-12-20T03:19:17;97382.28;;;8.51;98.57
21359;BME280;13506;50.852;20.632;2023-12-20T03:21:46;97379.59;;;8.53;100.00
21359;BME280;13506;50.852;20.632;2023-12-20T03:24:14;97374.72;;;8.61;99.29
21359;BME280;13506;50.852;20.632;2023-12-20T03:26:42;97383.97;;;8.65;99.59
21359;BME280;13506;50.852;20.632;2023-12-20T03:29:10;97379.41;;;8.69;99.05
21359;BME280;13506;50.852;20.632;2023-12-20T03:31:39;97384.38;;;8.72;99.13
21359;BME280;13506;50.852;20.632;2023-12-20T03:34:07;97382.97;;;8.68;99.60
21359;BME280;13506;50.852;20.632;2023-12-20T03:36:35;97378.38;;;8.71;99.25
21359;BME280;13506;50.852;20.632;2023-12-20T03:39:03;97384.09;;;8.76;98.44
21359;BME280;13506;50.852;20.632;2023-12-20T03:41:32;97390.22;;;8.75;98.68
21359;BME280;13506;50.852;20.632;2023-12-20T03:44:00;97389.91;;;8.80;98.91
21359;BME280;13506;50.852;20.632;2023-12-20T03:46:28;97390.84;;;8.79;98.89
21359;BME280;13506;50.852;20.632;2023-12-20T03:48:57;97389.38;;;8.75;98.28
21359;BME280;13506;50.852;20.632;2023-12-20T03:51:26;97400.97;;;8.69;98.62
21359;BME280;13506;50.852;20.632;2023-12-20T03:53:53;97405.44;;;8.67;99.00
21359;BME280;13506;50.852;20.632;2023-12-20T03:56:21;97395.59;;;8.60;99.48
21359;BME280;13506;50.852;20.632;2023-12-20T03:58:49;97403.16;;;8.63;98.85
21359;BME280;13506;50.852;20.632;2023-12-20T04:01:17;97401.19;;;8.66;99.70
21359;BME280;13506;50.852;20.632;2023-12-20T04:03:45;97399.44;;;8.67;99.00
21359;BME280;13506;50.852;20.632;2023-12-20T04:06:18;97408.16;;;8.66;99.81
21359;BME280;13506;50.852;20.632;2023-12-20T04:08:46;97403.53;;;8.56;100.00
21359;BME280;13506;50.852;20.632;2023-12-20T04:11:14;97395.78;;;8.56;99.69
21359;BME280;13506;50.852;20.632;2023-12-20T04:13:42;97400.97;;;8.56;99.63
21359;BME280;13506;50.852;20.632;2023-12-20T04:16:10;97393.00;;;8.60;99.16
21359;BME280;13506;50.852;20.632;2023-12-20T04:18:37;97398.91;;;8.62;100.00
21359;BME280;13506;50.852;20.632;2023-12-20T04:21:06;97393.72;;;8.62;99.26
21359;BME280;13506;50.852;20.632;2023-12-20T04:23:35;97394.72;;;8.59;100.00
21359;BME280;13506;50.852;20.632;2023-12-20T04:26:03;97392.88;;;8.61;100.00
21359;BME280;13506;50.852;20.632;2023-12-20T04:28:31;97398.06;;;8.61;100.00
21359;BME280;13506;50.852;20.632;2023-12-20T04:30:59;97384.47;;;8.58;99.29
21359;BME280;13506;50.852;20.632;2023-12-20T04:33:27;97395.78;;;8.56;100.00
21359;BME280;13506;50.852;20.632;2023-12-20T04:35:55;97386.34;;;8.55;100.00
21359;BME280;13506;50.852;20.632;2023-12-20T04:38:24;97386.34;;;8.55;100.00
21359;BME280;13506;50.852;20.632;2023-12-20T04:40:53;97389.13;;;8.52;99.99
21359;BME280;13506;50.852;20.632;2023-12-20T04:43:21;97390.97;;;8.50;100.00
21359;BME280;13506;50.852;20.632;2023-12-20T04:45:50;97385.81;;;8.50;100.00
21359;BME280;13506;50.852;20.632;2023-12-20T04:48:18;97386.00;;;8.47;100.00
21359;BME280;13506;50.852;20.632;2023-12-20T04:50:46;97393.38;;;8.53;100.00
21359;BME280;13506;50.852;20.632;2023-12-20T04:53:14;97384.88;;;8.51;100.00
21359;BME280;13506;50.852;20.632;2023-12-20T04:55:42;97390.81;;;8.53;100.00
21359;BME280;13506;50.852;20.632;2023-12-20T04:58:11;97388.22;;;8.53;100.00
21359;BME280;13506;50.852;20.632;2023-12-20T05:00:39;97385.63;;;8.53;100.00
21359;BME280;13506;50.852;20.632;2023-12-20T05:03:06;97384.06;;;8.51;100.00
21359;BME280;13506;50.852;20.632;2023-12-20T05:05:34;97378.25;;;8.47;100.00
21359;BME280;13506;50.852;20.632;2023-12-20T05:08:02;97383.81;;;8.41;100.00
21359;BME280;13506;50.852;20.632;2023-12-20T05:10:30;97382.88;;;8.42;100.00
21359;BME280;13506;50.852;20.632;2023-12-20T05:12:58;97387.06;;;8.45;100.00
21359;BME280;13506;50.852;20.632;2023-12-20T05:15:28;97387.16;;;8.43;100.00
21359;BME280;13506;50.852;20.632;2023-12-20T05:17:56;97381.00;;;8.44;100.00
21359;BME280;13506;50.852;20.632;2023-12-20T05:20:24;97384.63;;;8.42;100.00
21359;BME280;13506;50.852;20.632;2023-12-20T05:22:51;97394.09;;;8.43;100.00
21359;BME280;13506;50.852;20.632;2023-12-20T05:25:19;97373.59;;;8.38;100.00
21359;BME280;13506;50.852;20.632;2023-12-20T05:27:47;97393.41;;;8.39;100.00
21359;BME280;13506;50.852;20.632;2023-12-20T05:30:15;97387.50;;;8.37;100.00
21359;BME280;13506;50.852;20.632;2023-12-20T05:32:45;97385.94;;;8.34;100.00
21359;BME280;13506;50.852;20.632;2023-12-20T05:35:13;97387.81;;;8.32;100.00
21359;BME280;13506;50.852;20.632;2023-12-20T05:37:41;97380.34;;;8.28;100.00
21359;BME280;13506;50.852;20.632;2023-12-20T05:40:10;97394.94;;;8.29;100.00
21359;BME280;13506;50.852;20.632;2023-12-20T05:42:38;97386.72;;;8.22;100.00
21359;BME280;13506;50.852;20.632;2023-12-20T05:45:08;97383.63;;;8.17;100.00
21359;BME280;13506;50.852;20.632;2023-12-20T05:47:37;97383.72;;;8.15;100.00
21359;BME280;13506;50.852;20.632;2023-12-20T05:50:07;97386.22;;;8.17;100.00
21359;BME280;13506;50.852;20.632;2023-12-20T05:52:35;97377.78;;;8.13;100.00
21359;BME280;13506;50.852;20.632;2023-12-20T05:55:03;97389.53;;;8.19;100.00
21359;BME280;13506;50.852;20.632;2023-12-20T05:57:31;97385.06;;;8.21;100.00
21359;BME280;13506;50.852;20.632;2023-12-20T05:59:59;97384.06;;;8.24;100.00
21359;BME280;13506;50.852;20.632;2023-12-20T06:02:27;97384.06;;;8.24;100.00
21359;BME280;13506;50.852;20.632;2023-12-20T06:04:55;97377.09;;;8.24;100.00
21359;BME280;13506;50.852;20.632;2023-12-20T06:07:25;97379.03;;;8.21;100.00
21359;BME280;13506;50.852;20.632;2023-12-20T06:09:53;97375.94;;;8.15;100.00
21359;BME280;13506;50.852;20.632;2023-12-20T06:12:22;97366.69;;;8.11;100.00
21359;BME280;13506;50.852;20.632;2023-12-20T06:14:50;97362.63;;;8.07;100.00
21359;BME280;13506;50.852;20.632;2023-12-20T06:17:19;97371.16;;;8.09;100.00
21359;BME280;13506;50.852;20.632;2023-12-20T06:19:47;97361.59;;;8.10;100.00
21359;BME280;13506;50.852;20.632;2023-12-20T06:22:15;97365.88;;;8.11;100.00
21359;BME280;13506;50.852;20.632;2023-12-20T06:24:45;97370.09;;;8.12;100.00
21359;BME280;13506;50.852;20.632;2023-12-20T06:27:13;97366.47;;;8.14;100.00
21359;BME280;13506;50.852;20.632;2023-12-20T06:29:41;97362.25;;;8.13;100.00
21359;BME280;13506;50.852;20.632;2023-12-20T06:32:11;97365.75;;;8.12;100.00
21359;BME280;13506;50.852;20.632;2023-12-20T06:34:39;97373.09;;;8.06;100.00
21359;BME280;13506;50.852;20.632;2023-12-20T06:37:07;97369.88;;;8.02;100.00
21359;BME280;13506;50.852;20.632;2023-12-20T06:39:35;97366.81;;;7.95;100.00
21359;BME280;13506;50.852;20.632;2023-12-20T06:42:05;97374.06;;;7.90;100.00
21359;BME280;13506;50.852;20.632;2023-12-20T06:44:33;97372.59;;;7.86;100.00
21359;BME280;13506;50.852;20.632;2023-12-20T06:47:01;97376.00;;;7.87;100.00
21359;BME280;13506;50.852;20.632;2023-12-20T06:49:29;97373.06;;;7.79;100.00
21359;BME280;13506;50.852;20.632;2023-12-20T06:51:59;97375.66;;;7.79;100.00
21359;BME280;13506;50.852;20.632;2023-12-20T06:54:27;97369.56;;;7.80;100.00
21359;BME280;13506;50.852;20.632;2023-12-20T06:56:54;97377.13;;;7.83;100.00
21359;BME280;13506;50.852;20.632;2023-12-20T06:59:24;97366.78;;;7.83;100.00
21359;BME280;13506;50.852;20.632;2023-12-20T07:01:52;97366.25;;;7.78;100.00
21359;BME280;13506;50.852;20.632;2023-12-20T07:04:20;97365.41;;;7.77;100.00
21359;BME280;13506;50.852;20.632;2023-12-20T07:06:49;97370.16;;;7.70;100.00
21359;BME280;13506;50.852;20.632;2023-12-20T07:09:18;97376.03;;;7.72;100.00
21359;BME280;13506;50.852;20.632;2023-12-20T07:11:46;97381.94;;;7.74;100.00
21359;BME280;13506;50.852;20.632;2023-12-20T07:14:14;97378.25;;;7.79;100.00
21359;BME280;13506;50.852;20.632;2023-12-20T07:16:45;97375.56;;;7.80;100.00
21359;BME280;13506;50.852;20.632;2023-12-20T07:19:13;97374.84;;;7.78;100.00
21359;BME280;13506;50.852;20.632;2023-12-20T07:21:41;97367.88;;;7.79;100.00
21359;BME280;13506;50.852;20.632;2023-12-20T07:24:09;97379.28;;;7.76;100.00
21359;BME280;13506;50.852;20.632;2023-12-20T07:26:37;97377.78;;;7.72;100.00
21359;BME280;13506;50.852;20.632;2023-12-20T07:29:07;97384.66;;;7.73;100.00
21359;BME280;13506;50.852;20.632;2023-12-20T07:31:34;97383.09;;;7.70;100.00
21359;BME280;13506;50.852;20.632;2023-12-20T07:34:04;97380.38;;;7.72;100.00
21359;BME280;13506;50.852;20.632;2023-12-20T07:36:32;97376.03;;;7.72;100.00
21359;BME280;13506;50.852;20.632;2023-12-20T07:39:00;97375.34;;;7.70;100.00
21359;BME280;13506;50.852;20.632;2023-12-20T07:41:28;97378.28;;;7.64;100.00
21359;BME280;13506;50.852;20.632;2023-12-20T07:43:56;97371.53;;;7.62;100.00
21359;BME280;13506;50.852;20.632;2023-12-20T07:46:24;97376.53;;;7.65;100.00
21359;BME280;13506;50.852;20.632;2023-12-20T07:48:54;97383.66;;;7.61;100.00
21359;BME280;13506;50.852;20.632;2023-12-20T07:51:23;97382.72;;;7.62;100.00
21359;BME280;13506;50.852;20.632;2023-12-20T07:53:52;97377.66;;;7.61;100.00
21359;BME280;13506;50.852;20.632;2023-12-20T07:56:20;97377.00;;;7.57;100.00
21359;BME280;13506;50.852;20.632;2023-12-20T07:58:48;97377.66;;;7.61;100.00
21359;BME280;13506;50.852;20.632;2023-12-20T08:01:16;97375.88;;;7.61;100.00
21359;BME280;13506;50.852;20.632;2023-12-20T08:03:45;97375.06;;;7.61;100.00
21359;BME280;13506;50.852;20.632;2023-12-20T08:06:13;97371.53;;;7.62;100.00
21359;BME280;13506;50.852;20.632;2023-12-20T08:08:45;97373.94;;;7.65;100.00
21359;BME280;13506;50.852;20.632;2023-12-20T08:11:13;97373.00;;;7.66;100.00
21359;BME280;13506;50.852;20.632;2023-12-20T08:13:41;97367.66;;;7.69;100.00
21359;BME280;13506;50.852;20.632;2023-12-20T08:16:09;97364.25;;;7.68;100.00
21359;BME280;13506;50.852;20.632;2023-12-20T08:18:40;97367.00;;;7.65;100.00
21359;BME280;13506;50.852;20.632;2023-12-20T08:21:08;97367.94;;;7.64;100.00
21359;BME280;13506;50.852;20.632;2023-12-20T08:23:36;97367.81;;;7.66;100.00
21359;BME280;13506;50.852;20.632;2023-12-20T08:26:06;97365.44;;;7.63;100.00
21359;BME280;13506;50.852;20.632;2023-12-20T08:28:34;97374.03;;;7.63;100.00
21359;BME280;13506;50.852;20.632;2023-12-20T08:31:04;97366.34;;;7.62;100.00
21359;BME280;13506;50.852;20.632;2023-12-20T08:33:33;97368.31;;;7.58;100.00
21359;BME280;13506;50.852;20.632;2023-12-20T08:36:00;97368.84;;;7.63;100.00
21359;BME280;13506;50.852;20.632;2023-12-20T08:38:32;97376.44;;;7.66;100.00
21359;BME280;13506;50.852;20.632;2023-12-20T08:41:00;97369.28;;;7.70;100.00
21359;BME280;13506;50.852;20.632;2023-12-20T08:43:31;97379.28;;;7.76;100.00
21359;BME280;13506;50.852;20.632;2023-12-20T08:45:59;97376.50;;;7.79;100.00
21359;BME280;13506;50.852;20.632;2023-12-20T08:48:27;97377.13;;;7.83;100.00
21359;BME280;13506;50.852;20.632;2023-12-20T08:50:55;97369.19;;;7.86;100.00
21359;BME280;13506;50.852;20.632;2023-12-20T08:53:23;97381.00;;;7.90;100.00
21359;BME280;13506;50.852;20.632;2023-12-20T08:55:51;97380.38;;;7.86;100.00
21359;BME280;13506;50.852;20.632;2023-12-20T08:58:19;97372.97;;;7.80;100.00
21359;BME280;13506;50.852;20.632;2023-12-20T09:00:49;97376.38;;;7.81;100.00
21359;BME280;13506;50.852;20.632;2023-12-20T09:03:17;97377.41;;;7.78;100.00
21359;BME280;13506;50.852;20.632;2023-12-20T09:05:44;97369.75;;;7.77;100.00
21359;BME280;13506;50.852;20.632;2023-12-20T09:08:13;97371.50;;;7.76;100.00
21359;BME280;13506;50.852;20.632;2023-12-20T09:10:40;97374.47;;;7.70;100.00
21359;BME280;13506;50.852;20.632;2023-12-20T09:13:09;97378.00;;;7.69;100.00
21359;BME280;13506;50.852;20.632;2023-12-20T09:15:36;97366.81;;;7.68;100.00
21359;BME280;13506;50.852;20.632;2023-12-20T09:18:07;97370.97;;;7.71;100.00
21359;BME280;13506;50.852;20.632;2023-12-20T09:20:35;97368.25;;;7.72;100.00
21359;BME280;13506;50.852;20.632;2023-12-20T09:23:04;97373.44;;;7.72;100.00
21359;BME280;13506;50.852;20.632;2023-12-20T09:25:32;97364.78;;;7.73;100.00
21359;BME280;13506;50.852;20.632;2023-12-20T09:28:00;97373.44;;;7.72;100.00
21359;BME280;13506;50.852;20.632;2023-12-20T09:30:27;97363.75;;;7.76;100.00
21359;BME280;13506;50.852;20.632;2023-12-20T09:32:56;97371.22;;;7.81;100.00
21359;BME280;13506;50.852;20.632;2023-12-20T09:35:26;97366.97;;;7.80;100.00
21359;BME280;13506;50.852;20.632;2023-12-20T09:37:54;97362.53;;;7.82;100.00
21359;BME280;13506;50.852;20.632;2023-12-20T09:40:23;97356.63;;;7.80;100.00
21359;BME280;13506;50.852;20.632;2023-12-20T09:42:57;97355.06;;;7.77;100.00
21359;BME280;13506;50.852;20.632;2023-12-20T09:45:25;97352.56;;;7.75;100.00
21359;BME280;13506;50.852;20.632;2023-12-20T09:47:54;97349.16;;;7.75;100.00
21359;BME280;13506;50.852;20.632;2023-12-20T09:50:24;97352.03;;;7.70;100.00
21359;BME280;13506;50.852;20.632;2023-12-20T09:52:53;97343.72;;;7.65;100.00
21359;BME280;13506;50.852;20.632;2023-12-20T09:55:22;97341.13;;;7.65;100.00
21359;BME280;13506;50.852;20.632;2023-12-20T09:57:52;97344.44;;;7.67;100.00
21359;BME280;13506;50.852;20.632;2023-12-20T10:00:21;97342.78;;;7.66;100.00
21359;BME280;13506;50.852;20.632;2023-12-20T10:02:53;97340.72;;;7.71;100.00
21359;BME280;13506;50.852;20.632;2023-12-20T10:05:28;97336.81;;;7.79;100.00
21359;BME280;13506;50.852;20.632;2023-12-20T10:07:56;97334.69;;;7.85;100.00
21359;BME280;13506;50.852;20.632;2023-12-20T10:10:25;97335.22;;;7.90;100.00
21359;BME280;13506;50.852;20.632;2023-12-20T10:13:03;97334.69;;;7.85;100.00
21359;BME280;13506;50.852;20.632;2023-12-20T10:15:32;97334.06;;;7.82;100.00
21359;BME280;13506;50.852;20.632;2023-12-20T10:18:01;97335.91;;;7.80;100.00
21359;BME280;13506;50.852;20.632;2023-12-20T10:20:31;97338.88;;;7.73;100.00
21359;BME280;13506;50.852;20.632;2023-12-20T10:23:00;97336.16;;;7.62;100.00
21359;BME280;13506;50.852;20.632;2023-12-20T10:25:28;97341.31;;;7.62;100.00
21359;BME280;13506;50.852;20.632;2023-12-20T10:28:11;97328.47;;;7.61;100.00
21359;BME280;13506;50.852;20.632;2023-12-20T10:30:40;97327.81;;;7.57;100.00
21359;BME280;13506;50.852;20.632;2023-12-20T10:33:09;97327.00;;;7.57;100.00
21359;BME280;13506;50.852;20.632;2023-12-20T10:35:39;97319.63;;;7.50;100.00
21359;BME280;13506;50.852;20.632;2023-12-20T10:38:08;97317.59;;;7.41;100.00
21359;BME280;13506;50.852;20.632;2023-12-20T10:40:37;97315.31;;;7.37;100.00
21359;BME280;13506;50.852;20.632;2023-12-20T10:43:06;97318.91;;;7.34;100.00
21359;BME280;13506;50.852;20.632;2023-12-20T10:45:36;97325.09;;;7.31;100.00
21359;BME280;13506;50.852;20.632;2023-12-20T10:48:04;97317.16;;;7.34;100.00
21359;BME280;13506;50.852;20.632;2023-12-20T10:50:32;97315.09;;;7.40;100.00
21359;BME280;13506;50.852;20.632;2023-12-20T10:53:07;97308.09;;;7.42;100.00
21359;BME280;13506;50.852;20.632;2023-12-20T10:55:35;97319.91;;;7.46;100.00
21359;BME280;13506;50.852;20.632;2023-12-20T10:58:07;97309.34;;;7.49;100.00
21359;BME280;13506;50.852;20.632;2023-12-20T11:00:40;97315.38;;;7.49;100.00
21359;BME280;13506;50.852;20.632;2023-12-20T11:03:10;97314.34;;;7.52;100.00
21359;BME280;13506;50.852;20.632;2023-12-20T11:05:44;97317.84;;;7.51;100.00
21359;BME280;13506;50.852;20.632;2023-12-20T11:08:19;97307.03;;;7.59;100.00
21359;BME280;13506;50.852;20.632;2023-12-20T11:10:55;97308.16;;;7.54;100.00
21359;BME280;13506;50.852;20.632;2023-12-20T11:13:30;97316.56;;;7.58;100.00
21359;BME280;13506;50.852;20.632;2023-12-20T11:15:59;97312.28;;;7.57;100.00
21359;BME280;13506;50.852;20.632;2023-12-20T11:18:31;97307.31;;;7.54;100.00
21359;BME280;13506;50.852;20.632;2023-12-20T11:21:01;97295.28;;;7.53;100.00
21359;BME280;13506;50.852;20.632;2023-12-20T11:23:33;97309.72;;;7.57;100.00
21359;BME280;13506;50.852;20.632;2023-12-20T11:26:02;97308.59;;;7.61;100.00
21359;BME280;13506;50.852;20.632;2023-12-20T11:28:30;97294.81;;;7.61;100.00
21359;BME280;13506;50.852;20.632;2023-12-20T11:31:00;97295.66;;;7.61;100.00
21359;BME280;13506;50.852;20.632;2023-12-20T11:33:35;97294.75;;;7.62;100.00
21359;BME280;13506;50.852;20.632;2023-12-20T11:36:06;97299.19;;;7.60;100.00
21359;BME280;13506;50.852;20.632;2023-12-20T11:38:53;97288.63;;;7.63;100.00
21359;BME280;13506;50.852;20.632;2023-12-20T11:41:23;97280.22;;;7.60;100.00
21359;BME280;13506;50.852;20.632;2023-12-20T11:43:54;97287.44;;;7.54;100.00
21359;BME280;13506;50.852;20.632;2023-12-20T11:46:24;97284.50;;;7.46;100.00
21359;BME280;13506;50.852;20.632;2023-12-20T11:48:54;97280.16;;;7.47;100.00
21359;BME280;13506;50.852;20.632;2023-12-20T11:51:21;97284.59;;;7.45;100.00
21359;BME280;13506;50.852;20.632;2023-12-20T11:53:53;97280.66;;;7.39;100.00
21359;BME280;13506;50.852;20.632;2023-12-20T11:56:23;97285.72;;;7.41;100.00
21359;BME280;13506;50.852;20.632;2023-12-20T11:58:52;97282.38;;;7.39;100.00
21359;BME280;13506;50.852;20.632;2023-12-20T12:01:20;97281.84;;;7.33;100.00
21359;BME280;13506;50.852;20.632;2023-12-20T12:03:48;97272.97;;;7.38;100.00
21359;BME280;13506;50.852;20.632;2023-12-20T12:06:16;97269.28;;;7.42;100.00
21359;BME280;13506;50.852;20.632;2023-12-20T12:08:44;97276.09;;;7.43;100.00
21359;BME280;13506;50.852;20.632;2023-12-20T12:11:13;97273.50;;;7.43;100.00
21359;BME280;13506;50.852;20.632;2023-12-20T12:13:42;97266.47;;;7.45;100.00
21359;BME280;13506;50.852;20.632;2023-12-20T12:16:11;97257.38;;;7.39;100.00
21359;BME280;13506;50.852;20.632;2023-12-20T12:18:40;97274.09;;;7.33;100.00
21359;BME280;13506;50.852;20.632;2023-12-20T12:21:08;97268.47;;;7.27;100.00
21359;BME280;13506;50.852;20.632;2023-12-20T12:23:36;97257.69;;;7.20;100.00
21359;BME280;13506;50.852;20.632;2023-12-20T12:26:04;97251.13;;;7.14;100.00
21359;BME280;13506;50.852;20.632;2023-12-20T12:28:35;97252.25;;;7.10;100.00
21359;BME280;13506;50.852;20.632;2023-12-20T12:31:03;97246.97;;;7.12;100.00
21359;BME280;13506;50.852;20.632;2023-12-20T12:33:32;97254.53;;;7.15;100.00
21359;BME280;13506;50.852;20.632;2023-12-20T12:36:00;97268.56;;;7.11;100.00
21359;BME280;13506;50.852;20.632;2023-12-20T12:38:32;97248.75;;;7.11;100.00
21359;BME280;13506;50.852;20.632;2023-12-20T12:41:01;97258.88;;;7.14;100.00
21359;BME280;13506;50.852;20.632;2023-12-20T12:43:29;97249.19;;;7.18;100.00
21359;BME280;13506;50.852;20.632;2023-12-20T12:45:58;97265.34;;;7.22;100.00
21359;BME280;13506;50.852;20.632;2023-12-20T12:48:26;97250.47;;;7.25;100.00
21359;BME280;13506;50.852;20.632;2023-12-20T12:50:55;97257.94;;;7.30;100.00
21359;BME280;13506;50.852;20.632;2023-12-20T12:53:26;97263.38;;;7.25;100.00
21359;BME280;13506;50.852;20.632;2023-12-20T12:55:54;97258.03;;;7.28;100.00
21359;BME280;13506;50.852;20.632;2023-12-20T12:58:22;97265.16;;;7.25;100.00
21359;BME280;13506;50.852;20.632;2023-12-20T13:00:51;97264.72;;;7.18;100.00